createdAt,value
2019-04-20T00:00:37.165Z,14.20
2019-04-20T00:03:03.839Z,14.20
2019-04-20T00:05:30.866Z,14.20
2019-04-20T00:08:00.674Z,14.30
2019-04-20T00:10:27.257Z,14.20
2019-04-20T00:13:06.824Z,14.20
2019-04-20T00:15:21.724Z,14.10
2019-04-20T00:17:54.233Z,14.10
2019-04-20T00:20:20.776Z,14.10
2019-04-20T00:22:50.134Z,14.10
2019-04-20T00:25:19.134Z,14.10
2019-04-20T00:28:04.441Z,14.00
2019-04-20T00:30:34.016Z,14.00
2019-04-20T00:32:55.589Z,14.00
2019-04-20T00:35:10.486Z,14.00
2019-04-20T00:37:37.984Z,14.00
2019-04-20T00:40:05.680Z,14.00
2019-04-20T00:42:39.078Z,14.00
2019-04-20T00:45:05.851Z,14.00
2019-04-20T00:47:37.344Z,14.10
2019-04-20T00:50:05.731Z,14.10
2019-04-20T00:52:32.900Z,14.00
2019-04-20T00:54:52.062Z,14.00
2019-04-20T00:57:25.895Z,13.90
2019-04-20T01:00:09.358Z,13.80
2019-04-20T01:02:29.911Z,13.60
2019-04-20T01:05:04.131Z,13.50
2019-04-20T01:07:24.142Z,13.50
2019-04-20T01:09:43.375Z,13.30
2019-04-20T01:12:17.280Z,13.40
2019-04-20T01:14:43.373Z,13.30
2019-04-20T01:17:11.663Z,13.30
2019-04-20T01:19:33.722Z,13.20
2019-04-20T01:22:05.247Z,13.20
2019-04-20T01:24:34.787Z,13.20
2019-04-20T01:27:00.423Z,13.30
2019-04-20T01:29:32.422Z,13.40
2019-04-20T01:32:05.666Z,13.50
2019-04-20T01:34:37.856Z,13.50
2019-04-20T01:37:04.408Z,13.50
2019-04-20T01:39:23.695Z,13.30
2019-04-20T01:41:43.886Z,13.30
2019-04-20T01:44:11.136Z,13.30
2019-04-20T01:46:39.110Z,13.30
2019-04-20T01:49:11.614Z,13.30
2019-04-20T01:51:45.958Z,13.30
2019-04-20T01:54:17.694Z,13.40
2019-04-20T01:56:43.691Z,13.40
2019-04-20T01:59:20.187Z,13.50
2019-04-20T02:01:36.192Z,13.60
2019-04-20T02:04:06.406Z,13.60
2019-04-20T02:06:41.882Z,13.60
2019-04-20T02:09:06.793Z,13.60
2019-04-20T02:11:32.774Z,13.70
2019-04-20T02:14:00.261Z,13.70
2019-04-20T02:16:31.753Z,13.80
2019-04-20T02:19:09.041Z,13.90
2019-04-20T02:21:34.044Z,13.80
2019-04-20T02:23:53.335Z,13.80
2019-04-20T02:26:16.003Z,13.80
2019-04-20T02:29:05.700Z,13.70
2019-04-20T02:34:19.852Z,13.70
2019-04-20T02:36:51.615Z,13.60
2019-04-20T02:44:14.358Z,13.60
2019-04-20T02:46:41.395Z,13.60
2019-04-20T02:49:10.149Z,13.60
2019-04-20T02:51:35.402Z,13.50
2019-04-20T02:54:13.084Z,13.50
2019-04-20T02:56:32.730Z,13.50
2019-04-20T02:59:02.173Z,13.60
2019-04-20T03:01:16.207Z,13.60
2019-04-20T03:03:32.849Z,13.60
2019-04-20T03:06:08.590Z,13.60
2019-04-20T03:08:38.049Z,13.60
2019-04-20T03:11:17.967Z,13.50
2019-04-20T03:13:39.684Z,13.50
2019-04-20T03:16:06.752Z,13.40
2019-04-20T03:18:37.500Z,13.30
2019-04-20T03:21:09.654Z,13.20
2019-04-20T03:23:37.265Z,13.10
2019-04-20T03:25:59.464Z,13.20
2019-04-20T03:28:32.903Z,13.20
2019-04-20T03:34:03.394Z,13.20
2019-04-20T03:36:07.487Z,13.30
2019-04-20T03:38:19.903Z,13.20
2019-04-20T03:40:46.480Z,13.20
2019-04-20T03:43:01.117Z,13.30
2019-04-20T03:45:35.398Z,13.40
2019-04-20T03:48:07.806Z,13.50
2019-04-20T03:50:46.591Z,13.40
2019-04-20T03:53:12.870Z,13.40
2019-04-20T03:55:39.725Z,13.50
2019-04-20T03:58:14.269Z,13.50
2019-04-20T04:00:43.255Z,13.60
2019-04-20T04:03:20.004Z,13.60
2019-04-20T04:05:36.879Z,13.50
2019-04-20T04:08:03.096Z,13.30
2019-04-20T04:10:30.362Z,13.20
2019-04-20T04:12:51.748Z,13.10
2019-04-20T04:15:19.064Z,13.10
2019-04-20T04:17:47.951Z,13.10
2019-04-20T04:20:17.429Z,13.30
2019-04-20T04:23:02.527Z,13.30
2019-04-20T04:25:20.773Z,13.20
2019-04-20T04:28:01.354Z,13.10
2019-04-20T04:30:30.560Z,13.00
2019-04-20T04:33:32.177Z,12.90
2019-04-20T04:35:27.196Z,12.70
2019-04-20T04:38:02.703Z,12.80
2019-04-20T04:40:42.738Z,12.70
2019-04-20T04:43:00.740Z,12.60
2019-04-20T04:45:11.229Z,12.70
2019-04-20T04:47:35.190Z,12.60
2019-04-20T04:50:09.580Z,12.50
2019-04-20T04:52:38.297Z,12.50
2019-04-20T04:55:11.065Z,12.50
2019-04-20T04:57:26.355Z,12.50
2019-04-20T04:59:53.116Z,12.50
2019-04-20T05:02:22.744Z,12.60
2019-04-20T05:05:10.408Z,12.60
2019-04-20T05:07:35.334Z,12.60
2019-04-20T05:09:50.684Z,12.60
2019-04-20T05:12:21.493Z,12.70
2019-04-20T05:14:56.900Z,12.70
2019-04-20T05:17:33.975Z,12.70
2019-04-20T05:19:57.441Z,12.80
2019-04-20T05:22:32.298Z,12.80
2019-04-20T05:25:02.118Z,12.80
2019-04-20T05:27:30.241Z,12.90
2019-04-20T05:29:39.561Z,13.00
2019-04-20T05:32:14.194Z,13.10
2019-04-20T05:35:02.367Z,13.10
2019-04-20T05:37:27.455Z,13.10
2019-04-20T05:39:51.927Z,13.20
2019-04-20T05:42:27.846Z,13.30
2019-04-20T05:44:50.267Z,13.30
2019-04-20T05:47:18.409Z,13.30
2019-04-20T05:49:45.423Z,13.40
2019-04-20T05:52:24.138Z,13.30
2019-04-20T05:54:47.613Z,13.30
2019-04-20T05:57:14.758Z,13.30
2019-04-20T05:59:48.387Z,13.30
2019-04-20T06:02:11.332Z,13.30
2019-04-20T06:04:48.605Z,13.40
2019-04-20T06:07:09.307Z,13.60
2019-04-20T06:09:33.952Z,13.80
2019-04-20T06:14:17.243Z,14.00
2019-04-20T06:17:04.176Z,14.10
2019-04-20T06:19:31.906Z,14.20
2019-04-20T06:22:04.016Z,14.30
2019-04-20T06:24:39.990Z,14.30
2019-04-20T06:26:59.260Z,14.40
2019-04-20T06:29:22.551Z,14.50
2019-04-20T06:31:59.112Z,14.60
2019-04-20T06:34:42.559Z,14.60
2019-04-20T06:42:08.435Z,14.90
2019-04-20T06:44:35.404Z,15.00
2019-04-20T06:46:58.892Z,15.10
2019-04-20T06:49:27.470Z,15.20
2019-04-20T06:51:55.415Z,15.20
2019-04-20T06:54:10.355Z,15.30
2019-04-20T06:56:49.956Z,15.30
2019-04-20T06:59:27.734Z,15.20
2019-04-20T07:01:58.309Z,15.10
2019-04-20T07:04:34.853Z,15.10
2019-04-20T07:06:51.877Z,15.10
2019-04-20T07:09:18.413Z,15.20
2019-04-20T07:11:42.597Z,15.20
2019-04-20T07:13:54.437Z,15.30
2019-04-20T07:16:36.302Z,15.40
2019-04-20T07:19:09.687Z,15.40
2019-04-20T07:21:52.370Z,15.40
2019-04-20T07:24:11.851Z,15.40
2019-04-20T07:26:37.282Z,15.30
2019-04-20T07:29:06.831Z,15.20
2019-04-20T07:31:32.044Z,15.10
2019-04-20T07:33:56.921Z,15.10
2019-04-20T07:36:32.289Z,15.10
2019-04-20T07:38:55.266Z,15.00
2019-04-20T07:41:33.132Z,14.90
2019-04-20T07:44:01.713Z,14.90
2019-04-20T07:46:35.188Z,14.90
2019-04-20T07:48:42.600Z,15.00
2019-04-20T07:51:04.858Z,15.10
2019-04-20T07:53:38.608Z,15.10
2019-04-20T07:56:14.714Z,15.00
2019-04-20T07:58:31.702Z,14.90
2019-04-20T08:01:18.182Z,15.20
2019-04-20T08:03:39.318Z,15.30
2019-04-20T08:05:58.223Z,15.50
2019-04-20T08:08:33.732Z,15.60
2019-04-20T08:10:58.611Z,15.80
2019-04-20T08:13:42.121Z,15.80
2019-04-20T08:16:00.774Z,15.80
2019-04-20T08:18:32.212Z,15.90
2019-04-20T08:21:00.914Z,15.90
2019-04-20T08:23:38.871Z,15.90
2019-04-20T08:25:47.533Z,15.90
2019-04-20T08:28:01.487Z,15.90
2019-04-20T08:30:46.750Z,15.90
2019-04-20T08:33:17.787Z,16.00
2019-04-20T08:35:52.573Z,16.00
2019-04-20T08:38:52.905Z,16.20
2019-04-20T08:40:43.486Z,16.30
2019-04-20T08:43:20.824Z,16.60
2019-04-20T08:45:41.973Z,16.80
2019-04-20T08:48:12.824Z,17.00
2019-04-20T08:50:36.389Z,17.30
2019-04-20T08:53:14.689Z,17.40
2019-04-20T08:55:33.394Z,17.50
2019-04-20T08:57:44.452Z,17.50
2019-04-20T09:00:11.251Z,17.40
2019-04-20T09:02:41.353Z,17.30
2019-04-20T09:05:18.632Z,17.20
2019-04-20T09:07:50.297Z,17.20
2019-04-20T09:10:32.428Z,17.40
2019-04-20T09:12:50.709Z,17.60
2019-04-20T09:15:05.987Z,17.60
2019-04-20T09:17:39.799Z,17.70
2019-04-20T09:20:12.647Z,17.90
2019-04-20T09:22:46.983Z,18.00
2019-04-20T09:25:42.790Z,18.10
2019-04-20T09:27:45.197Z,18.20
2019-04-20T09:30:18.810Z,18.50
2019-04-20T09:32:51.735Z,18.50
2019-04-20T09:35:26.704Z,18.60
2019-04-20T09:37:53.159Z,18.60
2019-04-20T09:40:27.721Z,18.80
2019-04-20T09:42:37.914Z,18.80
2019-04-20T09:45:07.558Z,19.00
2019-04-20T09:47:40.643Z,19.20
2019-04-20T09:50:22.530Z,19.30
2019-04-20T09:52:52.645Z,19.30
2019-04-20T09:55:14.325Z,19.40
2019-04-20T09:57:54.108Z,19.30
2019-04-20T10:00:19.377Z,19.10
2019-04-20T10:02:37.776Z,18.90
2019-04-20T10:05:05.235Z,19.10
2019-04-20T10:07:34.347Z,19.10
2019-04-20T10:10:00.009Z,19.20
2019-04-20T10:12:26.432Z,19.50
2019-04-20T10:14:53.237Z,19.60
2019-04-20T10:17:20.246Z,19.40
2019-04-20T10:19:48.336Z,19.40
2019-04-20T10:22:14.992Z,19.60
2019-04-20T10:24:42.354Z,19.50
2019-04-20T10:27:08.637Z,19.90
2019-04-20T10:29:35.544Z,19.90
2019-04-20T10:32:07.010Z,19.90
2019-04-20T10:34:30.572Z,19.90
2019-04-20T10:36:57.551Z,19.80
2019-04-20T10:39:26.658Z,19.70
2019-04-20T10:41:57.654Z,19.60
2019-04-20T10:44:21.055Z,19.60
2019-04-20T10:46:47.261Z,19.70
2019-04-20T10:49:13.468Z,19.70
2019-04-20T10:51:40.050Z,19.70
2019-04-20T10:54:06.684Z,19.70
2019-04-20T10:56:33.694Z,19.80
2019-04-20T10:59:01.310Z,19.80
2019-04-20T11:01:27.847Z,19.80
2019-04-20T11:03:54.487Z,20.00
2019-04-20T11:06:20.962Z,20.20
2019-04-20T11:08:48.492Z,20.30
2019-04-20T11:11:23.152Z,20.00
2019-04-20T11:13:43.503Z,19.10
2019-04-20T11:16:10.724Z,18.30
2019-04-20T11:18:37.766Z,18.00
2019-04-20T11:21:04.403Z,18.20
2019-04-20T11:23:32.015Z,18.50
2019-04-20T11:26:00.078Z,18.70
2019-04-20T11:28:26.584Z,18.70
2019-04-20T11:30:53.026Z,18.70
2019-04-20T11:33:20.628Z,18.30
2019-04-20T11:35:48.145Z,18.40
2019-04-20T11:38:17.107Z,18.40
2019-04-20T11:40:42.958Z,18.60
2019-04-20T11:43:09.197Z,18.50
2019-04-20T11:45:36.404Z,18.60
2019-04-20T11:48:03.292Z,18.70
2019-04-20T11:50:29.633Z,18.70
2019-04-20T11:52:57.189Z,18.90
2019-04-20T11:55:24.353Z,19.10
2019-04-20T11:57:51.334Z,19.20
2019-04-20T12:00:23.978Z,19.00
2019-04-20T12:02:54.271Z,19.00
2019-04-20T12:05:32.416Z,18.90
2019-04-20T12:07:53.278Z,19.00
2019-04-20T12:10:23.712Z,19.00
2019-04-20T12:12:51.018Z,18.80
2019-04-20T12:15:16.826Z,19.10
2019-04-20T12:17:43.954Z,19.10
2019-04-20T12:20:10.468Z,19.00
2019-04-20T12:22:36.992Z,19.20
2019-04-20T12:25:05.838Z,19.20
2019-04-20T12:27:32.654Z,19.20
2019-04-20T12:29:59.594Z,19.10
2019-04-20T12:32:28.215Z,19.10
2019-04-20T12:34:54.125Z,19.40
2019-04-20T12:37:20.870Z,19.40
2019-04-20T12:39:47.180Z,19.20
2019-04-20T12:42:14.722Z,19.10
2019-04-20T12:44:41.805Z,18.80
2019-04-20T12:47:08.080Z,18.80
2019-04-20T12:49:35.687Z,18.80
2019-04-20T12:52:05.130Z,18.90
2019-04-20T12:54:29.996Z,19.00
2019-04-20T12:56:56.382Z,18.70
2019-04-20T12:59:23.452Z,18.80
2019-04-20T13:01:51.275Z,18.90
2019-04-20T13:04:18.485Z,19.40
2019-04-20T13:06:44.870Z,18.70
2019-04-20T13:09:12.621Z,18.70
2019-04-20T13:11:49.454Z,19.10
2019-04-20T13:14:14.827Z,19.20
2019-04-20T13:16:41.139Z,19.00
2019-04-20T13:19:08.812Z,19.00
2019-04-20T13:21:36.545Z,18.90
2019-04-20T13:24:04.746Z,19.20
2019-04-20T13:26:31.428Z,19.10
2019-04-20T13:28:57.620Z,19.10
2019-04-20T13:31:24.071Z,19.30
2019-04-20T13:33:51.631Z,19.30
2019-04-20T13:36:18.145Z,19.20
2019-04-20T13:38:44.336Z,19.40
2019-04-20T13:41:11.679Z,19.00
2019-04-20T13:43:37.980Z,19.10
2019-04-20T13:46:04.939Z,19.10
2019-04-20T13:48:31.312Z,19.20
2019-04-20T13:50:58.288Z,19.00
2019-04-20T13:53:25.321Z,19.10
2019-04-20T13:55:51.909Z,19.10
2019-04-20T13:58:20.117Z,19.30
2019-04-20T14:00:50.318Z,19.40
2019-04-20T14:03:18.431Z,19.10
2019-04-20T14:05:45.028Z,19.40
2019-04-20T14:08:11.534Z,19.90
2019-04-20T14:10:37.980Z,20.00
2019-04-20T14:13:11.254Z,20.00
2019-04-20T14:15:33.238Z,19.80
2019-04-20T14:17:59.617Z,19.60
2019-04-20T14:20:27.071Z,19.60
2019-04-20T14:22:54.657Z,19.80
2019-04-20T14:25:22.845Z,20.00
2019-04-20T14:27:49.273Z,19.50
2019-04-20T14:30:15.478Z,19.60
2019-04-20T14:32:42.948Z,19.60
2019-04-20T14:35:09.318Z,19.70
2019-04-20T14:37:36.059Z,18.90
2019-04-20T14:40:06.163Z,18.40
2019-04-20T14:42:40.716Z,18.30
2019-04-20T14:45:01.891Z,18.60
2019-04-20T14:47:28.301Z,18.40
2019-04-20T14:49:55.140Z,18.90
2019-04-20T14:52:23.813Z,19.00
2019-04-20T14:54:50.239Z,19.30
2019-04-20T14:57:17.302Z,19.10
2019-04-20T14:59:45.538Z,19.20
2019-04-20T15:02:15.226Z,18.90
2019-04-20T15:04:43.118Z,18.80
2019-04-20T15:07:10.747Z,18.90
2019-04-20T15:09:38.861Z,19.40
2019-04-20T15:12:06.619Z,20.20
2019-04-20T15:14:34.500Z,20.70
2019-04-20T15:17:00.975Z,21.00
2019-04-20T15:19:29.482Z,20.80
2019-04-20T15:21:57.795Z,21.00
2019-04-20T15:24:24.033Z,21.30
2019-04-20T15:26:52.083Z,21.00
2019-04-20T15:29:18.403Z,20.70
2019-04-20T15:31:45.902Z,20.30
2019-04-20T15:34:12.933Z,20.00
2019-04-20T15:36:40.207Z,19.60
2019-04-20T15:39:07.333Z,19.10
2019-04-20T15:41:33.706Z,19.50
2019-04-20T15:43:59.899Z,19.60
2019-04-20T15:46:27.603Z,19.40
2019-04-20T15:48:53.912Z,19.30
2019-04-20T15:51:21.586Z,19.10
2019-04-20T15:53:49.410Z,18.90
2019-04-20T15:56:16.594Z,18.80
2019-04-20T15:58:44.147Z,18.90
2019-04-20T16:01:10.625Z,19.20
2019-04-20T16:03:39.254Z,19.40
2019-04-20T16:06:07.567Z,19.60
2019-04-20T16:08:36.656Z,19.50
2019-04-20T16:11:04.537Z,19.40
2019-04-20T16:13:37.623Z,19.20
2019-04-20T16:15:59.218Z,19.30
2019-04-20T16:18:25.420Z,19.40
2019-04-20T16:21:00.453Z,19.60
2019-04-20T16:23:20.769Z,19.80
2019-04-20T16:25:49.896Z,19.40
2019-04-20T16:28:17.388Z,19.20
2019-04-20T16:30:43.715Z,19.30
2019-04-20T16:33:10.465Z,19.10
2019-04-20T16:35:36.769Z,19.30
2019-04-20T16:38:02.966Z,19.20
2019-04-20T16:40:31.521Z,19.10
2019-04-20T16:42:58.486Z,19.20
2019-04-20T16:45:25.333Z,19.20
2019-04-20T16:47:52.448Z,19.40
2019-04-20T16:50:19.325Z,19.40
2019-04-20T16:52:46.560Z,19.00
2019-04-20T16:55:12.985Z,18.70
2019-04-20T16:57:39.719Z,18.70
2019-04-20T17:00:07.385Z,18.50
2019-04-20T17:02:34.041Z,18.20
2019-04-20T17:05:00.940Z,18.10
2019-04-20T17:07:29.325Z,18.20
2019-04-20T17:09:55.998Z,18.20
2019-04-20T17:12:23.749Z,18.10
2019-04-20T17:14:51.562Z,18.40
2019-04-20T17:17:17.965Z,18.20
2019-04-20T17:19:44.167Z,17.90
2019-04-20T17:22:11.577Z,17.90
2019-04-20T17:24:38.105Z,17.90
2019-04-20T17:27:06.519Z,18.00
2019-04-20T17:29:35.848Z,18.00
2019-04-20T17:32:05.516Z,17.80
2019-04-20T17:34:49.261Z,17.40
2019-04-20T17:37:00.523Z,17.60
2019-04-20T17:39:37.134Z,17.20
2019-04-20T17:42:12.848Z,17.30
2019-04-20T17:44:35.920Z,17.30
2019-04-20T17:47:00.619Z,17.50
2019-04-20T17:49:31.443Z,17.20
2019-04-20T17:52:12.766Z,17.10
2019-04-20T17:54:17.729Z,17.20
2019-04-20T17:56:44.502Z,17.10
2019-04-20T17:59:12.343Z,17.00
2019-04-20T18:01:53.972Z,17.00
2019-04-20T18:04:46.485Z,16.80
2019-04-20T18:06:50.467Z,16.50
2019-04-20T18:09:34.897Z,16.10
2019-04-20T18:11:42.576Z,15.90
2019-04-20T18:14:24.203Z,15.70
2019-04-20T18:16:51.967Z,15.50
2019-04-20T18:19:09.982Z,15.40
2019-04-20T18:21:32.990Z,15.40
2019-04-20T18:24:00.407Z,15.30
2019-04-20T18:26:48.126Z,15.10
2019-04-20T18:29:15.040Z,14.90
2019-04-20T18:31:25.842Z,15.00
2019-04-20T18:33:54.086Z,15.00
2019-04-20T18:36:27.281Z,14.90
2019-04-20T18:38:54.035Z,14.90
2019-04-20T18:41:31.814Z,14.80
2019-04-20T18:43:50.412Z,14.70
2019-04-20T18:46:29.304Z,14.70
2019-04-20T18:49:03.550Z,14.70
2019-04-20T18:51:09.883Z,14.70
2019-04-20T18:53:42.523Z,14.60
2019-04-20T18:56:04.726Z,14.50
2019-04-20T18:58:33.290Z,14.50
2019-04-20T19:01:00.830Z,14.50
2019-04-20T19:03:33.680Z,14.50
2019-04-20T19:05:55.827Z,14.40
2019-04-20T19:08:30.262Z,14.50
2019-04-20T19:11:01.725Z,14.40
2019-04-20T19:13:26.767Z,14.40
2019-04-20T19:16:04.353Z,14.50
2019-04-20T19:18:38.345Z,14.50
2019-04-20T19:20:50.841Z,14.50
2019-04-20T19:23:17.244Z,14.50
2019-04-20T19:25:44.207Z,14.50
2019-04-20T19:28:14.520Z,14.50
2019-04-20T19:30:47.014Z,14.50
2019-04-20T19:33:22.714Z,14.50
2019-04-20T19:35:46.590Z,14.50
2019-04-20T19:38:14.882Z,14.60
2019-04-20T19:40:45.623Z,14.50
2019-04-20T19:43:13.741Z,14.50
2019-04-20T19:45:46.603Z,14.40
2019-04-20T19:48:12.208Z,14.30
2019-04-20T19:50:49.738Z,14.30
2019-04-20T19:53:16.416Z,14.30
2019-04-20T19:55:40.076Z,14.20
2019-04-20T19:58:01.424Z,14.10
2019-04-20T20:00:20.783Z,14.20
2019-04-20T20:02:47.860Z,14.20
2019-04-20T20:05:16.235Z,14.20
2019-04-20T20:07:46.369Z,14.40
2019-04-20T20:10:10.981Z,14.50
2019-04-20T20:12:41.232Z,14.60
2019-04-20T20:15:13.781Z,14.50
2019-04-20T20:17:57.738Z,14.40
2019-04-20T20:20:28.932Z,14.50
2019-04-20T20:22:40.670Z,14.40
2019-04-20T20:25:01.086Z,14.30
2019-04-20T20:27:32.622Z,14.40
2019-04-20T20:30:08.231Z,14.60
2019-04-20T20:32:39.039Z,14.70
2019-04-20T20:35:01.247Z,14.80
2019-04-20T20:37:26.726Z,15.00
2019-04-20T20:39:59.321Z,15.10
2019-04-20T20:42:29.610Z,15.30
2019-04-20T20:44:52.336Z,15.40
2019-04-20T20:47:39.799Z,15.50
2019-04-20T20:50:04.044Z,15.50
2019-04-20T20:52:30.544Z,15.60
2019-04-20T20:54:49.489Z,15.70
2019-04-20T20:57:11.391Z,15.70
2019-04-20T20:59:42.972Z,15.80
2019-04-20T21:02:06.753Z,16.00
2019-04-20T21:04:29.897Z,16.20
2019-04-20T21:06:56.267Z,16.30
2019-04-20T21:09:25.146Z,16.10
2019-04-20T21:11:58.326Z,15.90
2019-04-20T21:14:21.967Z,15.50
2019-04-20T21:16:53.122Z,15.40
2019-04-20T21:19:28.565Z,15.30
2019-04-20T21:21:50.480Z,15.20
2019-04-20T21:24:16.503Z,15.00
2019-04-20T21:26:44.019Z,14.80
2019-04-20T21:29:10.027Z,14.60
2019-04-20T21:31:36.693Z,14.40
2019-04-20T21:34:10.046Z,14.30
2019-04-20T21:36:31.829Z,14.20
2019-04-20T21:38:59.359Z,14.10
2019-04-20T21:41:26.093Z,14.10
2019-04-20T21:43:54.018Z,14.10
2019-04-20T21:46:20.778Z,14.10
2019-04-20T21:48:59.764Z,14.20
2019-04-20T21:51:30.065Z,14.30
2019-04-20T21:53:44.294Z,14.40
2019-04-20T21:56:12.091Z,14.50
2019-04-20T21:58:44.782Z,14.60
2019-04-20T22:01:16.306Z,14.70
2019-04-20T22:03:36.328Z,14.70
2019-04-20T22:06:04.733Z,14.70
2019-04-20T22:08:32.562Z,14.60
2019-04-20T22:10:59.793Z,14.70
2019-04-20T22:13:32.402Z,14.80
2019-04-20T22:16:03.137Z,14.90
2019-04-20T22:18:27.030Z,15.10
2019-04-20T22:21:06.897Z,15.10
2019-04-20T22:23:43.385Z,15.20
2019-04-20T22:26:05.149Z,15.40
2019-04-20T22:28:20.442Z,15.50
2019-04-20T22:30:48.431Z,15.60
2019-04-20T22:33:23.601Z,15.60
2019-04-20T22:35:53.010Z,15.50
2019-04-20T22:38:22.589Z,15.50
2019-04-20T22:40:49.189Z,15.30
2019-04-20T22:43:17.993Z,15.10
2019-04-20T22:45:50.343Z,15.00
2019-04-20T22:48:15.706Z,14.80
2019-04-20T22:51:03.603Z,14.70
2019-04-20T22:53:26.096Z,14.70
2019-04-20T22:56:01.186Z,14.60
2019-04-20T22:58:23.628Z,14.40
2019-04-20T23:00:43.439Z,14.30
2019-04-20T23:03:02.980Z,14.10
2019-04-20T23:05:29.395Z,13.90
2019-04-20T23:07:56.976Z,13.80
2019-04-20T23:10:29.407Z,13.80
2019-04-20T23:12:55.919Z,13.80
2019-04-20T23:15:20.532Z,13.80
2019-04-20T23:17:50.070Z,13.90
2019-04-20T23:20:22.070Z,14.00
2019-04-20T23:22:46.188Z,14.20
2019-04-20T23:25:13.216Z,14.30
2019-04-20T23:27:41.682Z,14.30
2019-04-20T23:30:12.580Z,14.40
2019-04-20T23:32:36.307Z,14.40
2019-04-20T23:35:09.736Z,14.40
2019-04-20T23:37:36.498Z,14.50
2019-04-20T23:40:02.699Z,14.60
2019-04-20T23:42:33.649Z,14.60
2019-04-20T23:45:02.181Z,14.70
2019-04-20T23:47:32.033Z,14.70
2019-04-20T23:50:16.299Z,14.70
2019-04-20T23:52:49.709Z,14.60
2019-04-20T23:55:03.904Z,14.50
2019-04-20T23:57:25.942Z,14.40
2019-04-20T23:59:53.779Z,14.50
